sensor_id;sensor_type;location;lat;lon;timestamp;pressure;altitude;pressure_sealevel;temperature;humidity
27643;BME280;15053;48.618;10.024;2023-04-25T00:01:54;93631.25;;;7.77;76.32
27643;BME280;15053;48.618;10.024;2023-04-25T00:04:20;93635.00;;;7.85;77.26
27643;BME280;15053;48.618;10.024;2023-04-25T00:06:48;93631.56;;;7.89;76.37
27643;BME280;15053;48.618;10.024;2023-04-25T00:09:15;93628.69;;;7.91;77.36
27643;BME280;15053;48.618;10.024;2023-04-25T00:11:41;93626.84;;;7.91;76.85
27643;BME280;15053;48.618;10.024;2023-04-25T00:14:08;93635.13;;;7.93;76.90
27643;BME280;15053;48.618;10.024;2023-04-25T00:16:34;93617.56;;;7.90;76.57
27643;BME280;15053;48.618;10.024;2023-04-25T00:19:02;93620.34;;;7.94;76.14
27643;BME280;15053;48.618;10.024;2023-04-25T00:21:29;93611.28;;;7.91;76.32
27643;BME280;15053;48.618;10.024;2023-04-25T00:23:57;93620.34;;;7.94;75.94
27643;BME280;15053;48.618;10.024;2023-04-25T00:26:24;93618.22;;;7.96;76.59
27643;BME280;15053;48.618;10.024;2023-04-25T00:28:51;93618.03;;;7.92;75.71
27643;BME280;15053;48.618;10.024;2023-04-25T00:31:18;93611.88;;;7.88;75.81
27643;BME280;15053;48.618;10.024;2023-04-25T00:33:44;93603.59;;;7.86;76.56
27643;BME280;15053;48.618;10.024;2023-04-25T00:36:11;93611.78;;;7.80;75.54
27643;BME280;15053;48.618;10.024;2023-04-25T00:38:38;93602.06;;;7.71;75.45
27643;BME280;15053;48.618;10.024;2023-04-25T00:41:07;93603.41;;;7.69;75.93
27643;BME280;15053;48.618;10.024;2023-04-25T00:43:33;93594.63;;;7.65;76.13
27643;BME280;15053;48.618;10.024;2023-04-25T00:46:02;93601.16;;;7.62;75.55
27643;BME280;15053;48.618;10.024;2023-04-25T00:48:28;93593.94;;;7.59;76.19
27643;BME280;15053;48.618;10.024;2023-04-25T00:50:58;93590.09;;;7.57;76.34
27643;BME280;15053;48.618;10.024;2023-04-25T00:53:26;93584.94;;;7.57;76.10
27643;BME280;15053;48.618;10.024;2023-04-25T00:55:54;93581.84;;;7.55;76.54
27643;BME280;15053;48.618;10.024;2023-04-25T00:58:22;93570.50;;;7.51;76.49
27643;BME280;15053;48.618;10.024;2023-04-25T01:00:50;93561.78;;;7.47;77.01
27643;BME280;15053;48.618;10.024;2023-04-25T01:03:18;93560.72;;;7.48;76.21
27643;BME280;15053;48.618;10.024;2023-04-25T01:05:48;93564.25;;;7.38;76.81
27643;BME280;15053;48.618;10.024;2023-04-25T01:08:16;93587.56;;;7.38;76.93
27643;BME280;15053;48.618;10.024;2023-04-25T01:10:43;93585.81;;;7.34;77.05
27643;BME280;15053;48.618;10.024;2023-04-25T01:13:09;93591.53;;;7.31;76.10
27643;BME280;15053;48.618;10.024;2023-04-25T01:15:36;93578.66;;;7.26;76.85
27643;BME280;15053;48.618;10.024;2023-04-25T01:18:05;93593.94;;;7.27;76.64
27643;BME280;15053;48.618;10.024;2023-04-25T01:20:33;93594.22;;;7.26;77.11
27643;BME280;15053;48.618;10.024;2023-04-25T01:23:00;93594.28;;;7.21;77.04
27643;BME280;15053;48.618;10.024;2023-04-25T01:25:27;93588.63;;;7.19;77.01
27643;BME280;15053;48.618;10.024;2023-04-25T01:27:53;93596.88;;;7.21;76.90
27643;BME280;15053;48.618;10.024;2023-04-25T01:30:20;93596.09;;;7.20;77.31
27643;BME280;15053;48.618;10.024;2023-04-25T01:32:47;93586.53;;;7.21;77.91
27643;BME280;15053;48.618;10.024;2023-04-25T01:35:14;93576.47;;;7.19;77.94
27643;BME280;15053;48.618;10.024;2023-04-25T01:37:42;93589.41;;;7.19;77.92
27643;BME280;15053;48.618;10.024;2023-04-25T01:40:11;93579.81;;;7.20;77.84
27643;BME280;15053;48.618;10.024;2023-04-25T01:42:40;93587.84;;;7.18;78.06
27643;BME280;15053;48.618;10.024;2023-04-25T01:45:08;93581.91;;;7.18;78.00
27643;BME280;15053;48.618;10.024;2023-04-25T01:47:35;93572.41;;;7.13;77.42
27643;BME280;15053;48.618;10.024;2023-04-25T01:50:03;93576.16;;;7.21;78.18
27643;BME280;15053;48.618;10.024;2023-04-25T01:52:31;93574.28;;;7.26;77.93
27643;BME280;15053;48.618;10.024;2023-04-25T01:54:59;93570.81;;;7.31;77.43
27643;BME280;15053;48.618;10.024;2023-04-25T01:57:29;93563.66;;;7.28;78.12
27643;BME280;15053;48.618;10.024;2023-04-25T01:59:58;93571.41;;;7.28;77.63
27643;BME280;15053;48.618;10.024;2023-04-25T02:02:37;93568.81;;;7.28;77.31
27643;BME280;15053;48.618;10.024;2023-04-25T02:05:07;93570.34;;;7.29;78.42
27643;BME280;15053;48.618;10.024;2023-04-25T02:07:37;93569.31;;;7.30;77.18
27643;BME280;15053;48.618;10.024;2023-04-25T02:10:04;93563.06;;;7.31;77.63
27643;BME280;15053;48.618;10.024;2023-04-25T02:12:35;93561.53;;;7.30;78.01
27643;BME280;15053;48.618;10.024;2023-04-25T02:15:05;93565.16;;;7.29;77.98
27643;BME280;15053;48.618;10.024;2023-04-25T02:17:48;93571.19;;;7.24;78.80
27643;BME280;15053;48.618;10.024;2023-04-25T02:20:15;93562.19;;;7.22;78.06
27643;BME280;15053;48.618;10.024;2023-04-25T02:22:46;93573.00;;;7.24;78.86
27643;BME280;15053;48.618;10.024;2023-04-25T02:25:12;93563.13;;;7.26;78.85
27643;BME280;15053;48.618;10.024;2023-04-25T02:27:39;93566.22;;;7.28;79.29
27643;BME280;15053;48.618;10.024;2023-04-25T02:30:07;93562.00;;;7.32;79.52
27643;BME280;15053;48.618;10.024;2023-04-25T02:32:34;93561.75;;;7.33;79.37
27643;BME280;15053;48.618;10.024;2023-04-25T02:35:01;93561.44;;;7.35;79.45
27643;BME280;15053;48.618;10.024;2023-04-25T02:37:33;93551.88;;;7.35;79.76
27643;BME280;15053;48.618;10.024;2023-04-25T02:40:01;93550.31;;;7.34;79.75
27643;BME280;15053;48.618;10.024;2023-04-25T02:42:30;93544.38;;;7.34;80.35
27643;BME280;15053;48.618;10.024;2023-04-25T02:44:57;93536.41;;;7.30;80.49
27643;BME280;15053;48.618;10.024;2023-04-25T02:47:25;93530.38;;;7.35;80.83
27643;BME280;15053;48.618;10.024;2023-04-25T02:49:52;93533.44;;;7.37;80.17
27643;BME280;15053;48.618;10.024;2023-04-25T02:52:19;93532.41;;;7.38;80.24
27643;BME280;15053;48.618;10.024;2023-04-25T02:54:52;93527.69;;;7.40;80.71
27643;BME280;15053;48.618;10.024;2023-04-25T02:57:19;93527.44;;;7.41;80.56
27643;BME280;15053;48.618;10.024;2023-04-25T02:59:45;93534.41;;;7.41;80.46
27643;BME280;15053;48.618;10.024;2023-04-25T03:02:12;93538.53;;;7.42;81.41
27643;BME280;15053;48.618;10.024;2023-04-25T03:04:38;93537.28;;;7.39;81.27
27643;BME280;15053;48.618;10.024;2023-04-25T03:07:05;93536.81;;;7.37;80.92
27643;BME280;15053;48.618;10.024;2023-04-25T03:09:32;93543.78;;;7.37;81.60
27643;BME280;15053;48.618;10.024;2023-04-25T03:11:59;93533.72;;;7.35;81.51
27643;BME280;15053;48.618;10.024;2023-04-25T03:14:27;93536.59;;;7.34;81.40
27643;BME280;15053;48.618;10.024;2023-04-25T03:16:54;93533.53;;;7.32;81.17
27643;BME280;15053;48.618;10.024;2023-04-25T03:19:21;93529.38;;;7.31;81.68
27643;BME280;15053;48.618;10.024;2023-04-25T03:21:48;93530.94;;;7.32;81.74
27643;BME280;15053;48.618;10.024;2023-04-25T03:24:14;93534.00;;;7.34;81.34
27643;BME280;15053;48.618;10.024;2023-04-25T03:26:41;93534.00;;;7.34;81.81
27643;BME280;15053;48.618;10.024;2023-04-25T03:29:08;93540.72;;;7.35;82.25
27643;BME280;15053;48.618;10.024;2023-04-25T03:31:36;93536.31;;;7.35;82.35
27643;BME280;15053;48.618;10.024;2023-04-25T03:34:02;93539.19;;;7.34;81.91
27643;BME280;15053;48.618;10.024;2023-04-25T03:36:29;93534.00;;;7.34;81.60
27643;BME280;15053;48.618;10.024;2023-04-25T03:38:55;93542.28;;;7.36;82.10
27643;BME280;15053;48.618;10.024;2023-04-25T03:41:23;93539.88;;;7.39;81.63
27643;BME280;15053;48.618;10.024;2023-04-25T03:44:03;93540.56;;;7.45;82.26
27643;BME280;15053;48.618;10.024;2023-04-25T03:46:30;93533.75;;;7.49;81.77
27643;BME280;15053;48.618;10.024;2023-04-25T03:48:57;93526.94;;;7.53;82.56
27643;BME280;15053;48.618;10.024;2023-04-25T03:51:32;93522.28;;;7.55;82.27
27643;BME280;15053;48.618;10.024;2023-04-25T03:53:58;93522.53;;;7.53;81.43
27643;BME280;15053;48.618;10.024;2023-04-25T03:56:45;93527.81;;;7.48;81.40
27643;BME280;15053;48.618;10.024;2023-04-25T03:59:18;93529.72;;;7.43;81.72
27643;BME280;15053;48.618;10.024;2023-04-25T04:01:44;93526.44;;;7.37;81.66
27643;BME280;15053;48.618;10.024;2023-04-25T04:04:11;93529.59;;;7.34;81.65
27643;BME280;15053;48.618;10.024;2023-04-25T04:06:38;93533.03;;;7.30;81.75
27643;BME280;15053;48.618;10.024;2023-04-25T04:09:34;93532.06;;;7.26;81.38
27643;BME280;15053;48.618;10.024;2023-04-25T04:12:06;93534.75;;;7.21;81.45
27643;BME280;15053;48.618;10.024;2023-04-25T04:14:34;93539.91;;;7.21;82.02
27643;BME280;15053;48.618;10.024;2023-04-25T04:17:00;93533.22;;;7.20;80.65
27643;BME280;15053;48.618;10.024;2023-04-25T04:19:27;93543.06;;;7.18;80.18
27643;BME280;15053;48.618;10.024;2023-04-25T04:22:03;93541.81;;;7.15;80.73
27643;BME280;15053;48.618;10.024;2023-04-25T04:24:30;93540.28;;;7.14;80.89
27643;BME280;15053;48.618;10.024;2023-04-25T04:27:01;93537.50;;;7.10;79.95
27643;BME280;15053;48.618;10.024;2023-04-25T04:29:32;93542.19;;;7.08;80.74
27643;BME280;15053;48.618;10.024;2023-04-25T04:32:07;93543.50;;;7.06;80.96
27643;BME280;15053;48.618;10.024;2023-04-25T04:34:35;93532.97;;;7.02;80.32
27643;BME280;15053;48.618;10.024;2023-04-25T04:37:02;93544.47;;;7.10;80.04
27643;BME280;15053;48.618;10.024;2023-04-25T04:39:29;93540.28;;;7.14;80.53
27643;BME280;15053;48.618;10.024;2023-04-25T04:42:21;93540.47;;;7.18;79.67
27643;BME280;15053;48.618;10.024;2023-04-25T04:45:00;93541.25;;;7.18;79.34
27643;BME280;15053;48.618;10.024;2023-04-25T04:47:57;93546.66;;;7.22;80.09
27643;BME280;15053;48.618;10.024;2023-04-25T04:50:43;93538.56;;;7.23;79.68
27643;BME280;15053;48.618;10.024;2023-04-25T04:53:30;93539.84;;;7.26;80.27
27643;BME280;15053;48.618;10.024;2023-04-25T04:56:15;93543.88;;;7.32;79.68
27643;BME280;15053;48.618;10.024;2023-04-25T04:59:11;93553.13;;;7.38;79.46
27643;BME280;15053;48.618;10.024;2023-04-25T05:01:59;93563.59;;;7.46;79.32
27643;BME280;15053;48.618;10.024;2023-04-25T05:04:45;93559.28;;;7.55;80.16
27643;BME280;15053;48.618;10.024;2023-04-25T05:07:35;93558.44;;;7.60;79.36
27643;BME280;15053;48.618;10.024;2023-04-25T05:10:06;93551.63;;;7.64;79.95
27643;BME280;15053;48.618;10.024;2023-04-25T05:12:35;93551.63;;;7.64;80.20
27643;BME280;15053;48.618;10.024;2023-04-25T05:15:13;93554.16;;;7.69;80.11
27643;BME280;15053;48.618;10.024;2023-04-25T05:17:58;93556.16;;;7.72;79.15
27643;BME280;15053;48.618;10.024;2023-04-25T05:20:43;93550.97;;;7.72;79.07
27643;BME280;15053;48.618;10.024;2023-04-25T05:23:21;93552.53;;;7.73;79.66
27643;BME280;15053;48.618;10.024;2023-04-25T05:25:55;93550.97;;;7.72;79.44
27643;BME280;15053;48.618;10.024;2023-04-25T05:28:42;93554.63;;;7.71;78.98
27643;BME280;15053;48.618;10.024;2023-04-25T05:31:27;93555.47;;;7.66;79.76
27643;BME280;15053;48.618;10.024;2023-04-25T05:34:00;93564.59;;;7.64;79.15
27643;BME280;15053;48.618;10.024;2023-04-25T05:36:38;93553.28;;;7.60;79.51
27643;BME280;15053;48.618;10.024;2023-04-25T05:39:04;93556.63;;;7.60;79.07
27643;BME280;15053;48.618;10.024;2023-04-25T05:41:52;93557.69;;;7.59;79.35
27643;BME280;15053;48.618;10.024;2023-04-25T05:44:45;93549.34;;;7.62;80.11
27643;BME280;15053;48.618;10.024;2023-04-25T05:47:26;93556.66;;;7.74;80.49
27643;BME280;15053;48.618;10.024;2023-04-25T05:50:00;93557.34;;;7.80;80.37
27643;BME280;15053;48.618;10.024;2023-04-25T05:52:45;93553.88;;;7.84;79.76
27643;BME280;15053;48.618;10.024;2023-04-25T05:55:31;93560.03;;;7.88;79.80
27643;BME280;15053;48.618;10.024;2023-04-25T05:58:02;93555.34;;;7.90;80.05
27643;BME280;15053;48.618;10.024;2023-04-25T06:00:29;93559.94;;;7.93;79.68
27643;BME280;15053;48.618;10.024;2023-04-25T06:02:55;93562.44;;;7.98;80.29
27643;BME280;15053;48.618;10.024;2023-04-25T06:05:22;93563.31;;;7.94;79.20
27643;BME280;15053;48.618;10.024;2023-04-25T06:07:49;93561.56;;;7.89;79.43
27643;BME280;15053;48.618;10.024;2023-04-25T06:10:15;93556.84;;;7.91;79.52
27643;BME280;15053;48.618;10.024;2023-04-25T06:12:42;93558.88;;;7.94;79.51
27643;BME280;15053;48.618;10.024;2023-04-25T06:15:09;93558.88;;;7.94;79.70
27643;BME280;15053;48.618;10.024;2023-04-25T06:17:53;93551.66;;;7.91;79.43
27643;BME280;15053;48.618;10.024;2023-04-25T06:20:19;93553.50;;;7.91;79.39
27643;BME280;15053;48.618;10.024;2023-04-25T06:22:50;93557.94;;;7.90;79.06
27643;BME280;15053;48.618;10.024;2023-04-25T06:25:20;93556.38;;;7.89;79.93
27643;BME280;15053;48.618;10.024;2023-04-25T06:27:46;93556.19;;;7.86;79.07
27643;BME280;15053;48.618;10.024;2023-04-25T06:30:13;93566.75;;;7.89;79.84
27643;BME280;15053;48.618;10.024;2023-04-25T06:32:39;93565.69;;;7.90;79.04
27643;BME280;15053;48.618;10.024;2023-04-25T06:35:06;93554.25;;;7.91;79.65
27643;BME280;15053;48.618;10.024;2023-04-25T06:37:33;93548.50;;;7.94;79.62
27643;BME280;15053;48.618;10.024;2023-04-25T06:40:00;93552.16;;;7.93;78.61
27643;BME280;15053;48.618;10.024;2023-04-25T06:42:28;93556.97;;;8.00;78.72
27643;BME280;15053;48.618;10.024;2023-04-25T06:44:58;93553.63;;;7.99;78.95
27643;BME280;15053;48.618;10.024;2023-04-25T06:47:27;93560.22;;;8.05;79.50
27643;BME280;15053;48.618;10.024;2023-04-25T06:49:53;93561.19;;;8.09;79.55
27643;BME280;15053;48.618;10.024;2023-04-25T06:52:20;93554.88;;;8.15;78.95
27643;BME280;15053;48.618;10.024;2023-04-25T06:54:48;93558.81;;;8.26;78.54
27643;BME280;15053;48.618;10.024;2023-04-25T06:57:29;93557.66;;;8.32;78.40
27643;BME280;15053;48.618;10.024;2023-04-25T07:00:06;93554.22;;;8.37;77.93
27643;BME280;15053;48.618;10.024;2023-04-25T07:02:36;93559.09;;;8.39;77.99
27643;BME280;15053;48.618;10.024;2023-04-25T07:05:03;93566.63;;;8.40;77.57
27643;BME280;15053;48.618;10.024;2023-04-25T07:07:30;93562.94;;;8.27;76.91
27643;BME280;15053;48.618;10.024;2023-04-25T07:09:57;93557.63;;;8.19;77.26
27643;BME280;15053;48.618;10.024;2023-04-25T07:12:25;93560.06;;;8.15;77.87
27643;BME280;15053;48.618;10.024;2023-04-25T07:14:51;93564.16;;;8.16;77.02
27643;BME280;15053;48.618;10.024;2023-04-25T07:17:18;93567.53;;;8.17;77.77
27643;BME280;15053;48.618;10.024;2023-04-25T07:19:45;93575.03;;;8.18;78.24
27643;BME280;15053;48.618;10.024;2023-04-25T07:22:11;93569.34;;;8.16;78.53
27643;BME280;15053;48.618;10.024;2023-04-25T07:24:40;93568.31;;;8.17;78.41
27643;BME280;15053;48.618;10.024;2023-04-25T07:27:10;93569.25;;;8.21;78.62
27643;BME280;15053;48.618;10.024;2023-04-25T07:29:46;93572.56;;;8.27;78.60
27643;BME280;15053;48.618;10.024;2023-04-25T07:32:13;93569.97;;;8.27;78.66
27643;BME280;15053;48.618;10.024;2023-04-25T07:34:41;93578.50;;;8.27;78.34
27643;BME280;15053;48.618;10.024;2023-04-25T07:37:08;93571.78;;;8.26;78.15
27643;BME280;15053;48.618;10.024;2023-04-25T07:39:44;93572.19;;;8.34;78.51
27643;BME280;15053;48.618;10.024;2023-04-25T07:42:12;93577.84;;;8.36;77.56
27643;BME280;15053;48.618;10.024;2023-04-25T07:44:41;93570.84;;;8.36;78.35
27643;BME280;15053;48.618;10.024;2023-04-25T07:47:10;93575.66;;;8.43;78.09
27643;BME280;15053;48.618;10.024;2023-04-25T07:49:39;93580.94;;;8.38;77.58
27643;BME280;15053;48.618;10.024;2023-04-25T07:52:05;93579.50;;;8.32;78.56
27643;BME280;15053;48.618;10.024;2023-04-25T07:54:34;93582.09;;;8.32;78.61
27643;BME280;15053;48.618;10.024;2023-04-25T07:57:08;93578.13;;;8.34;78.45
27643;BME280;15053;48.618;10.024;2023-04-25T07:59:36;93581.31;;;8.45;77.77
27643;BME280;15053;48.618;10.024;2023-04-25T08:02:05;93586.69;;;8.48;77.41
27643;BME280;15053;48.618;10.024;2023-04-25T08:04:31;93587.47;;;8.49;77.10
27643;BME280;15053;48.618;10.024;2023-04-25T08:07:03;93589.66;;;8.55;77.45
27643;BME280;15053;48.618;10.024;2023-04-25T08:09:37;93588.78;;;8.60;77.00
27643;BME280;15053;48.618;10.024;2023-04-25T08:12:09;93583.50;;;8.65;77.02
27643;BME280;15053;48.618;10.024;2023-04-25T08:14:35;93593.19;;;8.73;77.44
27643;BME280;15053;48.618;10.024;2023-04-25T08:17:04;93594.03;;;8.82;77.21
27643;BME280;15053;48.618;10.024;2023-04-25T08:19:33;93591.34;;;8.87;77.01
27643;BME280;15053;48.618;10.024;2023-04-25T08:22:01;93596.69;;;9.04;76.64
27643;BME280;15053;48.618;10.024;2023-04-25T08:24:37;93601.19;;;9.12;76.25
27643;BME280;15053;48.618;10.024;2023-04-25T08:27:07;93600.59;;;9.15;76.38
27643;BME280;15053;48.618;10.024;2023-04-25T08:29:34;93601.56;;;9.19;75.29
27643;BME280;15053;48.618;10.024;2023-04-25T08:32:01;93606.44;;;9.21;74.74
27643;BME280;15053;48.618;10.024;2023-04-25T08:34:28;93605.88;;;9.24;74.04
27643;BME280;15053;48.618;10.024;2023-04-25T08:36:55;93610.78;;;9.25;74.25
27643;BME280;15053;48.618;10.024;2023-04-25T08:39:57;93616.91;;;9.29;73.71
27643;BME280;15053;48.618;10.024;2023-04-25T08:42:50;93615.78;;;9.22;72.95
27643;BME280;15053;48.618;10.024;2023-04-25T08:45:17;93612.53;;;9.16;73.69
27643;BME280;15053;48.618;10.024;2023-04-25T08:47:45;93617.63;;;9.21;73.56
27643;BME280;15053;48.618;10.024;2023-04-25T08:50:12;93615.09;;;9.30;73.32
27643;BME280;15053;48.618;10.024;2023-04-25T08:52:43;93629.50;;;9.36;72.83
27643;BME280;15053;48.618;10.024;2023-04-25T08:55:12;93627.19;;;9.34;72.61
27643;BME280;15053;48.618;10.024;2023-04-25T08:57:40;93623.78;;;9.25;72.97
27643;BME280;15053;48.618;10.024;2023-04-25T09:00:10;93621.16;;;9.25;72.57
27643;BME280;15053;48.618;10.024;2023-04-25T09:02:42;93628.47;;;9.23;72.75
27643;BME280;15053;48.618;10.024;2023-04-25T09:05:12;93633.59;;;9.15;72.97
27643;BME280;15053;48.618;10.024;2023-04-25T09:07:39;93638.22;;;9.04;73.14
27643;BME280;15053;48.618;10.024;2023-04-25T09:10:06;93643.66;;;8.94;73.63
27643;BME280;15053;48.618;10.024;2023-04-25T09:12:36;93648.47;;;8.87;75.52
27643;BME280;15053;48.618;10.024;2023-04-25T09:15:11;93657.13;;;8.82;75.84
27643;BME280;15053;48.618;10.024;2023-04-25T09:17:57;93661.06;;;8.66;77.35
27643;BME280;15053;48.618;10.024;2023-04-25T09:20:28;93666.94;;;8.45;77.94
27643;BME280;15053;48.618;10.024;2023-04-25T09:23:05;93667.34;;;8.19;77.96
27643;BME280;15053;48.618;10.024;2023-04-25T09:25:37;93673.84;;;8.03;79.11
27643;BME280;15053;48.618;10.024;2023-04-25T09:28:08;93675.84;;;7.93;79.94
27643;BME280;15053;48.618;10.024;2023-04-25T09:30:36;93681.75;;;7.80;80.07
27643;BME280;15053;48.618;10.024;2023-04-25T09:33:28;93685.00;;;7.71;80.02
27643;BME280;15053;48.618;10.024;2023-04-25T09:36:09;93679.16;;;7.61;80.24
27643;BME280;15053;48.618;10.024;2023-04-25T09:38:57;93684.28;;;7.47;80.41
27643;BME280;15053;48.618;10.024;2023-04-25T09:41:31;93683.09;;;7.40;81.60
27643;BME280;15053;48.618;10.024;2023-04-25T09:44:00;93689.84;;;7.41;81.95
27643;BME280;15053;48.618;10.024;2023-04-25T09:46:34;93695.97;;;7.45;82.26
27643;BME280;15053;48.618;10.024;2023-04-25T09:49:08;93701.16;;;7.45;82.63
27643;BME280;15053;48.618;10.024;2023-04-25T09:51:57;93710.41;;;7.51;83.39
27643;BME280;15053;48.618;10.024;2023-04-25T09:54:28;93707.34;;;7.49;83.76
27643;BME280;15053;48.618;10.024;2023-04-25T09:59:54;93709.78;;;7.40;84.16
27643;BME280;15053;48.618;10.024;2023-04-25T10:02:24;93715.75;;;7.41;84.53
27643;BME280;15053;48.618;10.024;2023-04-25T10:04:55;93708.75;;;7.41;84.92
27643;BME280;15053;48.618;10.024;2023-04-25T10:07:35;93711.25;;;7.46;85.18
27643;BME280;15053;48.618;10.024;2023-04-25T10:10:08;93710.88;;;7.53;85.08
27643;BME280;15053;48.618;10.024;2023-04-25T10:12:35;93707.75;;;7.56;85.01
27643;BME280;15053;48.618;10.024;2023-04-25T10:15:02;93706.84;;;7.65;84.78
27643;BME280;15053;48.618;10.024;2023-04-25T10:17:29;93712.06;;;7.79;85.08
27643;BME280;15053;48.618;10.024;2023-04-25T10:19:57;93714.25;;;7.91;84.27
27643;BME280;15053;48.618;10.024;2023-04-25T10:22:41;93710.22;;;7.98;84.40
27643;BME280;15053;48.618;10.024;2023-04-25T10:25:08;93706.97;;;8.06;84.66
27643;BME280;15053;48.618;10.024;2023-04-25T10:27:36;93715.16;;;8.13;84.80
27643;BME280;15053;48.618;10.024;2023-04-25T10:30:05;93708.94;;;8.14;85.42
27643;BME280;15053;48.618;10.024;2023-04-25T10:32:35;93720.28;;;8.18;85.78
27643;BME280;15053;48.618;10.024;2023-04-25T10:35:18;93710.88;;;8.22;85.43
27643;BME280;15053;48.618;10.024;2023-04-25T10:38:11;93710.31;;;8.25;85.82
27643;BME280;15053;48.618;10.024;2023-04-25T10:40:40;93711.84;;;8.26;85.43
27643;BME280;15053;48.618;10.024;2023-04-25T10:45:55;93719.69;;;8.21;85.54
27643;BME280;15053;48.618;10.024;2023-04-25T10:48:27;93716.22;;;8.12;85.80
27643;BME280;15053;48.618;10.024;2023-04-25T10:51:10;93723.72;;;8.14;86.04
27643;BME280;15053;48.618;10.024;2023-04-25T10:53:37;93717.00;;;8.13;86.00
27643;BME280;15053;48.618;10.024;2023-04-25T10:56:17;93725.53;;;8.13;86.57
27643;BME280;15053;48.618;10.024;2023-04-25T10:58:45;93732.13;;;8.06;86.79
27643;BME280;15053;48.618;10.024;2023-04-25T11:01:15;93739.66;;;8.07;86.51
27643;BME280;15053;48.618;10.024;2023-04-25T11:03:42;93743.28;;;8.06;86.93
27643;BME280;15053;48.618;10.024;2023-04-25T11:09:17;93745.53;;;7.94;86.71
27643;BME280;15053;48.618;10.024;2023-04-25T11:11:53;93745.63;;;7.89;86.38
27643;BME280;15053;48.618;10.024;2023-04-25T11:14:19;93745.47;;;7.81;86.33
27643;BME280;15053;48.618;10.024;2023-04-25T11:16:46;93748.53;;;7.69;85.17
27643;BME280;15053;48.618;10.024;2023-04-25T11:19:12;93745.56;;;7.57;84.73
27643;BME280;15053;48.618;10.024;2023-04-25T11:21:39;93740.94;;;7.54;85.33
27643;BME280;15053;48.618;10.024;2023-04-25T11:24:05;93744.53;;;7.58;84.97
27643;BME280;15053;48.618;10.024;2023-04-25T11:26:32;93746.53;;;7.61;84.95
27643;BME280;15053;48.618;10.024;2023-04-25T11:28:59;93741.34;;;7.61;85.80
27643;BME280;15053;48.618;10.024;2023-04-25T11:31:29;93741.34;;;7.61;85.81
27643;BME280;15053;48.618;10.024;2023-04-25T11:33:59;93748.84;;;7.62;85.81
27643;BME280;15053;48.618;10.024;2023-04-25T11:36:26;93753.69;;;7.69;86.74
27643;BME280;15053;48.618;10.024;2023-04-25T11:38:53;93738.16;;;7.69;86.09
27643;BME280;15053;48.618;10.024;2023-04-25T11:41:20;93752.22;;;7.82;86.69
27643;BME280;15053;48.618;10.024;2023-04-25T11:43:48;93757.63;;;7.85;86.43
27643;BME280;15053;48.618;10.024;2023-04-25T11:46:16;93755.03;;;7.85;86.53
27643;BME280;15053;48.618;10.024;2023-04-25T11:48:43;93761.72;;;7.86;85.28
27643;BME280;15053;48.618;10.024;2023-04-25T11:51:09;93765.09;;;7.87;85.97
27643;BME280;15053;48.618;10.024;2023-04-25T11:53:41;93776.47;;;7.91;85.84
27643;BME280;15053;48.618;10.024;2023-04-25T11:56:09;93768.69;;;7.91;86.06
27643;BME280;15053;48.618;10.024;2023-04-25T11:59:00;93776.41;;;7.77;86.11
27643;BME280;15053;48.618;10.024;2023-04-25T12:01:34;93791.28;;;7.66;86.86
27643;BME280;15053;48.618;10.024;2023-04-25T12:04:19;93793.69;;;7.63;87.00
27643;BME280;15053;48.618;10.024;2023-04-25T12:06:51;93793.75;;;7.58;87.41
27643;BME280;15053;48.618;10.024;2023-04-25T12:09:19;93795.34;;;7.54;87.69
27643;BME280;15053;48.618;10.024;2023-04-25T12:11:54;93805.78;;;7.49;87.68
27643;BME280;15053;48.618;10.024;2023-04-25T12:14:23;93814.94;;;7.41;87.02
27643;BME280;15053;48.618;10.024;2023-04-25T12:16:58;93811.19;;;7.29;86.32
27643;BME280;15053;48.618;10.024;2023-04-25T12:19:25;93814.88;;;7.23;86.40
27643;BME280;15053;48.618;10.024;2023-04-25T12:21:52;93816.00;;;7.17;86.50
27643;BME280;15053;48.618;10.024;2023-04-25T12:24:24;93817.81;;;7.16;87.20
27643;BME280;15053;48.618;10.024;2023-04-25T12:27:03;93824.81;;;7.16;86.52
27643;BME280;15053;48.618;10.024;2023-04-25T12:29:33;93823.53;;;7.13;86.28
27643;BME280;15053;48.618;10.024;2023-04-25T12:32:15;93826.91;;;7.13;85.79
27643;BME280;15053;48.618;10.024;2023-04-25T12:34:42;93824.31;;;7.13;86.10
27643;BME280;15053;48.618;10.024;2023-04-25T12:37:09;93830.47;;;7.18;86.22
27643;BME280;15053;48.618;10.024;2023-04-25T12:39:35;93831.81;;;7.15;86.92
27643;BME280;15053;48.618;10.024;2023-04-25T12:42:02;93837.75;;;7.16;86.65
27643;BME280;15053;48.618;10.024;2023-04-25T12:44:31;93843.47;;;7.12;86.84
27643;BME280;15053;48.618;10.024;2023-04-25T12:46:57;93844.88;;;7.05;86.22
27643;BME280;15053;48.618;10.024;2023-04-25T12:49:26;93841.38;;;6.91;85.66
27643;BME280;15053;48.618;10.024;2023-04-25T12:51:52;93850.50;;;6.83;86.77
27643;BME280;15053;48.618;10.024;2023-04-25T12:54:19;93839.81;;;6.90;87.47
27643;BME280;15053;48.618;10.024;2023-04-25T12:56:45;93850.34;;;6.98;86.91
27643;BME280;15053;48.618;10.024;2023-04-25T12:59:12;93847.69;;;7.08;86.62
27643;BME280;15053;48.618;10.024;2023-04-25T13:01:39;93854.31;;;7.20;87.38
27643;BME280;15053;48.618;10.024;2023-04-25T13:04:05;93853.72;;;7.23;86.43
27643;BME280;15053;48.618;10.024;2023-04-25T13:06:32;93858.19;;;7.17;86.06
27643;BME280;15053;48.618;10.024;2023-04-25T13:08:59;93872.69;;;7.18;86.27
27643;BME280;15053;48.618;10.024;2023-04-25T13:11:25;93856.84;;;7.25;87.00
27643;BME280;15053;48.618;10.024;2023-04-25T13:13:52;93864.41;;;7.40;86.08
27643;BME280;15053;48.618;10.024;2023-04-25T13:16:19;93851.88;;;7.52;86.14
27643;BME280;15053;48.618;10.024;2023-04-25T13:18:47;93856.84;;;7.67;85.24
27643;BME280;15053;48.618;10.024;2023-04-25T13:21:14;93856.13;;;7.85;85.22
27643;BME280;15053;48.618;10.024;2023-04-25T13:23:40;93849.78;;;7.91;84.74
27643;BME280;15053;48.618;10.024;2023-04-25T13:26:09;93856.47;;;7.97;84.25
27643;BME280;15053;48.618;10.024;2023-04-25T13:28:35;93851.44;;;8.06;84.36